sensor_id;sensor_type;location;lat;lon;timestamp;pressure;altitude;pressure_sealevel;temperature;humidity
23679;BME280;12016;51.668;6.874;2022-11-15T00:05:08;100738.19;;;11.64;100.00
23679;BME280;12016;51.668;6.874;2022-11-15T00:11:29;100744.53;;;11.68;100.00
23679;BME280;12016;51.668;6.874;2022-11-15T00:17:50;100744.97;;;11.70;100.00
23679;BME280;12016;51.668;6.874;2022-11-15T00:24:10;100744.09;;;11.59;100.00
23679;BME280;12016;51.668;6.874;2022-11-15T00:30:31;100744.16;;;11.66;100.00
23679;BME280;12016;51.668;6.874;2022-11-15T00:36:52;100738.63;;;11.73;100.00
23679;BME280;12016;51.668;6.874;2022-11-15T00:43:12;100725.19;;;11.75;100.00
23679;BME280;12016;51.668;6.874;2022-11-15T00:49:32;100719.25;;;11.77;100.00
23679;BME280;12016;51.668;6.874;2022-11-15T00:55:53;100706.97;;;11.81;100.00
23679;BME280;12016;51.668;6.874;2022-11-15T01:02:13;100709.38;;;11.79;100.00
23679;BME280;12016;51.668;6.874;2022-11-15T01:08:33;100706.22;;;11.84;100.00
23679;BME280;12016;51.668;6.874;2022-11-15T01:14:54;100700.69;;;11.84;100.00
23679;BME280;12016;51.668;6.874;2022-11-15T01:21:16;100718.06;;;11.81;100.00
23679;BME280;12016;51.668;6.874;2022-11-15T01:27:38;100703.84;;;11.86;100.00
23679;BME280;12016;51.668;6.874;2022-11-15T01:33:58;100697.88;;;11.88;100.00
23679;BME280;12016;51.668;6.874;2022-11-15T01:40:18;100694.38;;;11.91;100.00
23679;BME280;12016;51.668;6.874;2022-11-15T01:46:41;100694.34;;;11.94;100.00
23679;BME280;12016;51.668;6.874;2022-11-15T01:53:05;100673.75;;;11.95;100.00
23679;BME280;12016;51.668;6.874;2022-11-15T01:59:25;100675.75;;;11.98;100.00
23679;BME280;12016;51.668;6.874;2022-11-15T02:05:46;100669.00;;;11.99;100.00
23679;BME280;12016;51.668;6.874;2022-11-15T02:12:08;100663.06;;;12.01;100.00
23679;BME280;12016;51.668;6.874;2022-11-15T02:18:41;100647.63;;;12.03;100.00
23679;BME280;12016;51.668;6.874;2022-11-15T02:25:22;100639.69;;;12.02;100.00
23679;BME280;12016;51.668;6.874;2022-11-15T02:32:00;100655.56;;;12.05;100.00
23679;BME280;12016;51.668;6.874;2022-11-15T02:45:29;100662.75;;;12.23;100.00
23679;BME280;12016;51.668;6.874;2022-11-15T02:51:51;100656.81;;;12.36;100.00
23679;BME280;12016;51.668;6.874;2022-11-15T03:04:59;100654.47;;;12.66;100.00
23679;BME280;12016;51.668;6.874;2022-11-15T03:11:23;100655.25;;;12.73;100.00
23679;BME280;12016;51.668;6.874;2022-11-15T03:17:49;100658.06;;;12.84;100.00
23679;BME280;12016;51.668;6.874;2022-11-15T03:24:14;100656.06;;;13.05;100.00
23679;BME280;12016;51.668;6.874;2022-11-15T03:30:38;100644.13;;;13.12;100.00
23679;BME280;12016;51.668;6.874;2022-11-15T03:37:01;100651.66;;;13.22;100.00
23679;BME280;12016;51.668;6.874;2022-11-15T03:49:59;100638.94;;;13.35;100.00
23679;BME280;12016;51.668;6.874;2022-11-15T03:56:21;100638.13;;;13.38;100.00
23679;BME280;12016;51.668;6.874;2022-11-15T04:02:41;100634.13;;;13.46;100.00
23679;BME280;12016;51.668;6.874;2022-11-15T04:09:02;100632.13;;;13.53;100.00
23679;BME280;12016;51.668;6.874;2022-11-15T04:15:23;100632.50;;;13.59;100.00
23679;BME280;12016;51.668;6.874;2022-11-15T04:21:44;100626.09;;;13.69;100.00
23679;BME280;12016;51.668;6.874;2022-11-15T04:28:22;100626.06;;;13.83;100.00
23679;BME280;12016;51.668;6.874;2022-11-15T04:34:43;100626.06;;;13.83;100.00
23679;BME280;12016;51.668;6.874;2022-11-15T04:41:04;100625.22;;;13.90;100.00
23679;BME280;12016;51.668;6.874;2022-11-15T04:47:24;100627.53;;;13.98;100.00
23679;BME280;12016;51.668;6.874;2022-11-15T04:53:45;100623.97;;;14.01;100.00
23679;BME280;12016;51.668;6.874;2022-11-15T05:00:08;100633.47;;;14.07;100.00
23679;BME280;12016;51.668;6.874;2022-11-15T05:06:29;100632.22;;;14.15;100.00
23679;BME280;12016;51.668;6.874;2022-11-15T05:12:50;100628.22;;;14.16;100.00
23679;BME280;12016;51.668;6.874;2022-11-15T05:19:11;100633.03;;;14.12;100.00
23679;BME280;12016;51.668;6.874;2022-11-15T05:25:31;100627.09;;;14.10;100.00
23679;BME280;12016;51.668;6.874;2022-11-15T05:31:52;100621.94;;;14.05;100.00
23679;BME280;12016;51.668;6.874;2022-11-15T05:38:12;100625.97;;;13.97;100.00
23679;BME280;12016;51.668;6.874;2022-11-15T05:44:33;100625.97;;;13.94;100.00
23679;BME280;12016;51.668;6.874;2022-11-15T05:50:56;100622.03;;;13.95;100.00
23679;BME280;12016;51.668;6.874;2022-11-15T05:57:17;100618.44;;;13.91;100.00
23679;BME280;12016;51.668;6.874;2022-11-15T06:03:40;100626.00;;;13.90;100.00
23679;BME280;12016;51.668;6.874;2022-11-15T06:10:00;100620.81;;;13.92;100.00
23679;BME280;12016;51.668;6.874;2022-11-15T06:16:20;100625.22;;;13.93;100.00
23679;BME280;12016;51.668;6.874;2022-11-15T06:22:40;100631.50;;;14.04;100.00
23679;BME280;12016;51.668;6.874;2022-11-15T06:29:03;100627.50;;;14.05;100.00
23679;BME280;12016;51.668;6.874;2022-11-15T06:35:23;100635.44;;;14.07;100.00
23679;BME280;12016;51.668;6.874;2022-11-15T06:41:44;100627.53;;;13.98;100.00
23679;BME280;12016;51.668;6.874;2022-11-15T06:48:04;100637.88;;;14.01;100.00
23679;BME280;12016;51.668;6.874;2022-11-15T06:54:25;100640.25;;;14.06;100.00
23679;BME280;12016;51.668;6.874;2022-11-15T07:00:46;100642.56;;;14.15;100.00
23679;BME280;12016;51.668;6.874;2022-11-15T07:07:06;100641.78;;;14.14;100.00
23679;BME280;12016;51.668;6.874;2022-11-15T07:13:28;100651.28;;;14.20;100.00
23679;BME280;12016;51.668;6.874;2022-11-15T07:19:49;100660.41;;;14.28;100.00
23679;BME280;12016;51.668;6.874;2022-11-15T07:26:10;100668.75;;;14.24;100.00
23679;BME280;12016;51.668;6.874;2022-11-15T07:32:30;100667.97;;;14.24;100.00
23679;BME280;12016;51.668;6.874;2022-11-15T07:38:50;100661.63;;;14.23;100.00
23679;BME280;12016;51.668;6.874;2022-11-15T07:45:11;100673.16;;;14.22;100.00
23679;BME280;12016;51.668;6.874;2022-11-15T07:51:31;100666.38;;;14.33;100.00
23679;BME280;12016;51.668;6.874;2022-11-15T07:57:52;100665.56;;;14.29;100.00
23679;BME280;12016;51.668;6.874;2022-11-15T08:04:13;100679.06;;;14.38;100.00
23679;BME280;12016;51.668;6.874;2022-11-15T08:10:33;100677.81;;;14.46;100.00
23679;BME280;12016;51.668;6.874;2022-11-15T08:16:57;100671.00;;;14.50;100.00
23679;BME280;12016;51.668;6.874;2022-11-15T08:23:17;100670.28;;;14.39;100.00
23679;BME280;12016;51.668;6.874;2022-11-15T08:29:37;100696.03;;;13.75;100.00
23679;BME280;12016;51.668;6.874;2022-11-15T08:36:00;100712.03;;;13.35;100.00
23679;BME280;12016;51.668;6.874;2022-11-15T08:42:20;100721.56;;;13.17;100.00
23679;BME280;12016;51.668;6.874;2022-11-15T08:48:41;100717.63;;;13.18;100.00
23679;BME280;12016;51.668;6.874;2022-11-15T08:55:02;100706.50;;;13.04;100.00
23679;BME280;12016;51.668;6.874;2022-11-15T09:01:22;100713.63;;;13.19;100.00
23679;BME280;12016;51.668;6.874;2022-11-15T09:07:43;100706.44;;;13.53;100.00
23679;BME280;12016;51.668;6.874;2022-11-15T09:14:03;100699.66;;;13.64;100.00
23679;BME280;12016;51.668;6.874;2022-11-15T09:20:24;100697.69;;;13.61;100.00
23679;BME280;12016;51.668;6.874;2022-11-15T09:26:45;100692.78;;;13.94;100.00
23679;BME280;12016;51.668;6.874;2022-11-15T09:33:09;100686.78;;;14.02;100.00
23679;BME280;12016;51.668;6.874;2022-11-15T09:39:31;100678.34;;;14.27;100.00
23679;BME280;12016;51.668;6.874;2022-11-15T09:46:27;100680.00;;;14.07;100.00
23679;BME280;12016;51.668;6.874;2022-11-15T09:53:01;100677.56;;;14.19;100.00
23679;BME280;12016;51.668;6.874;2022-11-15T10:05:25;100628.59;;;15.61;100.00
23679;BME280;12016;51.668;6.874;2022-11-15T10:11:32;100590.44;;;18.05;100.00
23679;BME280;12016;51.668;6.874;2022-11-15T10:18:03;100564.75;;;20.14;100.00
23679;BME280;12016;51.668;6.874;2022-11-15T10:24:00;100540.00;;;20.93;100.00
23679;BME280;12016;51.668;6.874;2022-11-15T10:30:06;100536.25;;;21.74;100.00
23679;BME280;12016;51.668;6.874;2022-11-15T10:42:28;100524.50;;;20.89;100.00
23679;BME280;12016;51.668;6.874;2022-11-15T10:48:30;100514.50;;;21.74;100.00
23679;BME280;12016;51.668;6.874;2022-11-15T10:54:54;100500.06;;;23.60;99.68
23679;BME280;12016;51.668;6.874;2022-11-15T11:01:25;100489.91;;;23.95;81.35
23679;BME280;12016;51.668;6.874;2022-11-15T11:07:30;100489.25;;;24.00;77.28
23679;BME280;12016;51.668;6.874;2022-11-15T11:13:34;100469.88;;;25.40;74.02
23679;BME280;12016;51.668;6.874;2022-11-15T11:26:31;100448.66;;;26.68;65.84
23679;BME280;12016;51.668;6.874;2022-11-15T11:45:52;100450.31;;;27.01;50.68
23679;BME280;12016;51.668;6.874;2022-11-15T11:52:17;100428.88;;;26.80;53.54
23679;BME280;12016;51.668;6.874;2022-11-15T11:58:26;100439.50;;;24.64;59.92
23679;BME280;12016;51.668;6.874;2022-11-15T12:04:35;100440.31;;;25.17;54.13
23679;BME280;12016;51.668;6.874;2022-11-15T12:10:45;100429.38;;;25.69;50.95
23679;BME280;12016;51.668;6.874;2022-11-15T12:16:49;100435.59;;;23.49;56.42
23679;BME280;12016;51.668;6.874;2022-11-15T12:22:59;100434.59;;;23.94;54.26
23679;BME280;12016;51.668;6.874;2022-11-15T12:29:15;100414.38;;;23.45;51.53
23679;BME280;12016;51.668;6.874;2022-11-15T12:47:41;100364.78;;;24.47;54.48
23679;BME280;12016;51.668;6.874;2022-11-15T12:53:43;100355.28;;;25.61;51.91
23679;BME280;12016;51.668;6.874;2022-11-15T12:59:54;100346.84;;;24.50;50.92
23679;BME280;12016;51.668;6.874;2022-11-15T13:05:59;100332.41;;;24.63;50.71
23679;BME280;12016;51.668;6.874;2022-11-15T13:12:08;100316.41;;;25.03;50.51
23679;BME280;12016;51.668;6.874;2022-11-15T13:24:30;100302.03;;;24.10;48.00
23679;BME280;12016;51.668;6.874;2022-11-15T13:30:32;100293.69;;;24.16;50.87
23679;BME280;12016;51.668;6.874;2022-11-15T13:36:34;100298.72;;;23.65;53.15
23679;BME280;12016;51.668;6.874;2022-11-15T13:42:36;100303.94;;;22.11;58.65
23679;BME280;12016;51.668;6.874;2022-11-15T13:48:41;100294.94;;;20.57;63.75
23679;BME280;12016;51.668;6.874;2022-11-15T13:54:47;100277.06;;;20.30;68.42
23679;BME280;12016;51.668;6.874;2022-11-15T14:01:00;100260.94;;;19.87;71.61
23679;BME280;12016;51.668;6.874;2022-11-15T14:07:03;100264.00;;;19.33;75.31
23679;BME280;12016;51.668;6.874;2022-11-15T14:13:26;100255.09;;;18.84;79.45
23679;BME280;12016;51.668;6.874;2022-11-15T14:25:34;100230.53;;;19.14;80.17
23679;BME280;12016;51.668;6.874;2022-11-15T14:31:36;100218.94;;;18.99;82.08
23679;BME280;12016;51.668;6.874;2022-11-15T14:37:41;100218.97;;;19.12;82.61
23679;BME280;12016;51.668;6.874;2022-11-15T14:43:43;100205.38;;;19.10;81.46
23679;BME280;12016;51.668;6.874;2022-11-15T14:49:45;100205.06;;;18.70;84.28
23679;BME280;12016;51.668;6.874;2022-11-15T14:55:47;100198.31;;;18.43;87.18
23679;BME280;12016;51.668;6.874;2022-11-15T15:01:49;100189.50;;;18.16;90.16
23679;BME280;12016;51.668;6.874;2022-11-15T15:07:51;100176.03;;;18.11;91.98
23679;BME280;12016;51.668;6.874;2022-11-15T15:13:55;100163.66;;;17.96;94.83
23679;BME280;12016;51.668;6.874;2022-11-15T15:19:58;100161.81;;;17.77;98.14
23679;BME280;12016;51.668;6.874;2022-11-15T15:26:00;100151.03;;;17.75;99.31
23679;BME280;12016;51.668;6.874;2022-11-15T15:32:02;100141.78;;;17.49;100.00
23679;BME280;12016;51.668;6.874;2022-11-15T15:38:04;100135.22;;;17.40;100.00
23679;BME280;12016;51.668;6.874;2022-11-15T15:44:06;100129.88;;;17.29;100.00
23679;BME280;12016;51.668;6.874;2022-11-15T15:50:25;100129.56;;;17.27;100.00
23679;BME280;12016;51.668;6.874;2022-11-15T15:56:27;100128.50;;;17.21;100.00
23679;BME280;12016;51.668;6.874;2022-11-15T16:02:30;100111.03;;;17.17;100.00
23679;BME280;12016;51.668;6.874;2022-11-15T16:08:33;100101.50;;;17.15;100.00
23679;BME280;12016;51.668;6.874;2022-11-15T16:14:43;100099.69;;;17.08;100.00
23679;BME280;12016;51.668;6.874;2022-11-15T16:20:47;100097.78;;;17.05;100.00
23679;BME280;12016;51.668;6.874;2022-11-15T16:26:51;100083.09;;;17.01;100.00
23679;BME280;12016;51.668;6.874;2022-11-15T16:32:53;100082.41;;;16.97;100.00
23679;BME280;12016;51.668;6.874;2022-11-15T16:38:55;100072.44;;;16.96;100.00
23679;BME280;12016;51.668;6.874;2022-11-15T16:44:57;100072.63;;;16.89;100.00
23679;BME280;12016;51.668;6.874;2022-11-15T16:50:59;100069.31;;;16.78;100.00
23679;BME280;12016;51.668;6.874;2022-11-15T16:57:01;100064.94;;;16.77;100.00
23679;BME280;12016;51.668;6.874;2022-11-15T17:03:03;100053.06;;;16.73;100.00
23679;BME280;12016;51.668;6.874;2022-11-15T17:09:06;100046.34;;;16.71;100.00
23679;BME280;12016;51.668;6.874;2022-11-15T17:15:12;100035.06;;;16.74;100.00
23679;BME280;12016;51.668;6.874;2022-11-15T17:21:18;100056.03;;;16.66;100.00
23679;BME280;12016;51.668;6.874;2022-11-15T17:27:20;100052.91;;;16.64;100.00
23679;BME280;12016;51.668;6.874;2022-11-15T17:33:23;100024.19;;;16.64;100.00
23679;BME280;12016;51.668;6.874;2022-11-15T17:39:25;100023.56;;;16.56;100.00
23679;BME280;12016;51.668;6.874;2022-11-15T17:45:26;100016.94;;;16.50;100.00
23679;BME280;12016;51.668;6.874;2022-11-15T17:51:28;100034.94;;;16.49;100.00
23679;BME280;12016;51.668;6.874;2022-11-15T17:57:30;100048.47;;;16.51;100.00
23679;BME280;12016;51.668;6.874;2022-11-15T18:03:33;100040.84;;;16.51;100.00
23679;BME280;12016;51.668;6.874;2022-11-15T18:09:35;100030.59;;;16.45;100.00
23679;BME280;12016;51.668;6.874;2022-11-15T18:15:38;100027.44;;;16.46;100.00
23679;BME280;12016;51.668;6.874;2022-11-15T18:21:41;100015.81;;;16.48;100.00
23679;BME280;12016;51.668;6.874;2022-11-15T18:28:16;100009.94;;;16.42;100.00
23679;BME280;12016;51.668;6.874;2022-11-15T18:34:18;99994.72;;;16.43;100.00
23679;BME280;12016;51.668;6.874;2022-11-15T18:40:20;99995.25;;;16.38;100.00
23679;BME280;12016;51.668;6.874;2022-11-15T18:46:23;99989.66;;;16.38;100.00
23679;BME280;12016;51.668;6.874;2022-11-15T18:52:26;99984.44;;;16.40;100.00
23679;BME280;12016;51.668;6.874;2022-11-15T18:58:37;99975.00;;;16.34;100.00
23679;BME280;12016;51.668;6.874;2022-11-15T19:04:39;99976.78;;;16.28;100.00
23679;BME280;12016;51.668;6.874;2022-11-15T19:10:41;99969.69;;;16.23;100.00
23679;BME280;12016;51.668;6.874;2022-11-15T19:16:45;99965.56;;;16.12;100.00
23679;BME280;12016;51.668;6.874;2022-11-15T19:22:50;99960.44;;;16.10;100.00
23679;BME280;12016;51.668;6.874;2022-11-15T19:28:57;99951.63;;;16.12;100.00
23679;BME280;12016;51.668;6.874;2022-11-15T19:34:59;99955.13;;;16.16;100.00
23679;BME280;12016;51.668;6.874;2022-11-15T19:41:02;99959.56;;;15.97;100.00
23679;BME280;12016;51.668;6.874;2022-11-15T19:47:04;99959.13;;;15.99;100.00
23679;BME280;12016;51.668;6.874;2022-11-15T19:53:09;99964.00;;;15.79;100.00
23679;BME280;12016;51.668;6.874;2022-11-15T19:59:11;99962.97;;;15.89;100.00
23679;BME280;12016;51.668;6.874;2022-11-15T20:05:14;99960.84;;;15.77;100.00
23679;BME280;12016;51.668;6.874;2022-11-15T20:11:19;99955.34;;;15.73;100.00
23679;BME280;12016;51.668;6.874;2022-11-15T20:17:21;99949.53;;;15.68;100.00
23679;BME280;12016;51.668;6.874;2022-11-15T20:23:24;99950.88;;;15.60;100.00
23679;BME280;12016;51.668;6.874;2022-11-15T20:29:25;99950.88;;;15.60;100.00
23679;BME280;12016;51.668;6.874;2022-11-15T20:35:28;99956.56;;;15.56;100.00
23679;BME280;12016;51.668;6.874;2022-11-15T20:41:30;99944.53;;;15.59;100.00
23679;BME280;12016;51.668;6.874;2022-11-15T20:47:32;99935.97;;;15.66;100.00
23679;BME280;12016;51.668;6.874;2022-11-15T20:53:34;99937.19;;;15.65;100.00
23679;BME280;12016;51.668;6.874;2022-11-15T20:59:36;99928.53;;;15.60;100.00
23679;BME280;12016;51.668;6.874;2022-11-15T21:05:40;99925.97;;;15.69;100.00
23679;BME280;12016;51.668;6.874;2022-11-15T21:11:42;99921.06;;;15.73;100.00
23679;BME280;12016;51.668;6.874;2022-11-15T21:18:02;99913.13;;;15.71;100.00
23679;BME280;12016;51.668;6.874;2022-11-15T21:24:06;99915.81;;;15.59;100.00
23679;BME280;12016;51.668;6.874;2022-11-15T21:30:08;99914.28;;;15.58;100.00
23679;BME280;12016;51.668;6.874;2022-11-15T21:36:11;99904.66;;;15.59;100.00
23679;BME280;12016;51.668;6.874;2022-11-15T21:42:12;99899.97;;;15.56;100.00
23679;BME280;12016;51.668;6.874;2022-11-15T21:48:14;99904.06;;;15.51;100.00
23679;BME280;12016;51.668;6.874;2022-11-15T21:54:17;99896.28;;;15.43;100.00
23679;BME280;12016;51.668;6.874;2022-11-15T22:00:18;99894.41;;;15.36;100.00
23679;BME280;12016;51.668;6.874;2022-11-15T22:06:39;99881.41;;;15.30;100.00
23679;BME280;12016;51.668;6.874;2022-11-15T22:12:41;99879.81;;;15.29;100.00
23679;BME280;12016;51.668;6.874;2022-11-15T22:18:43;99865.63;;;15.23;100.00
23679;BME280;12016;51.668;6.874;2022-11-15T22:24:44;99870.25;;;15.30;100.00
23679;BME280;12016;51.668;6.874;2022-11-15T22:30:49;99861.38;;;15.35;100.00
23679;BME280;12016;51.668;6.874;2022-11-15T22:36:51;99855.00;;;15.34;100.00
23679;BME280;12016;51.668;6.874;2022-11-15T22:43:14;99855.78;;;15.35;100.00
23679;BME280;12016;51.668;6.874;2022-11-15T22:49:17;99848.81;;;15.27;100.00
23679;BME280;12016;51.668;6.874;2022-11-15T22:55:19;99842.88;;;15.25;100.00
23679;BME280;12016;51.668;6.874;2022-11-15T23:01:21;99835.38;;;15.22;100.00
23679;BME280;12016;51.668;6.874;2022-11-15T23:07:23;99829.00;;;15.21;100.00
23679;BME280;12016;51.668;6.874;2022-11-15T23:13:26;99817.34;;;15.26;100.00
23679;BME280;12016;51.668;6.874;2022-11-15T23:19:28;99814.63;;;15.23;100.00
23679;BME280;12016;51.668;6.874;2022-11-15T23:25:30;99802.78;;;15.19;100.00
23679;BME280;12016;51.668;6.874;2022-11-15T23:31:32;99800.84;;;15.16;100.00
23679;BME280;12016;51.668;6.874;2022-11-15T23:38:01;99791.00;;;15.11;100.00
23679;BME280;12016;51.668;6.874;2022-11-15T23:44:04;99797.72;;;15.14;100.00
23679;BME280;12016;51.668;6.874;2022-11-15T23:50:06;99787.78;;;15.13;100.00
23679;BME280;12016;51.668;6.874;2022-11-15T23:56:11;99785.44;;;15.11;100.00
